createdAt,value
2023-05-05T00:00:49.718Z,17.65
2023-05-05T00:01:49.877Z,17.59
2023-05-05T00:02:49.780Z,17.68
2023-05-05T00:03:49.717Z,17.65
2023-05-05T00:04:49.658Z,17.81
2023-05-05T00:05:49.650Z,17.86
2023-05-05T00:06:49.651Z,17.96
2023-05-05T00:07:49.640Z,18.01
2023-05-05T00:08:49.633Z,18.02
2023-05-05T00:09:49.596Z,17.96
2023-05-05T00:10:49.588Z,17.83
2023-05-05T00:11:49.580Z,17.86
2023-05-05T00:12:49.609Z,17.90
2023-05-05T00:13:49.545Z,17.94
2023-05-05T00:14:49.539Z,18.09
2023-05-05T00:15:49.526Z,18.12
2023-05-05T00:16:49.537Z,18.27
2023-05-05T00:17:49.518Z,18.18
2023-05-05T00:18:49.475Z,18.11
2023-05-05T00:19:49.481Z,18.20
2023-05-05T00:20:49.452Z,18.23
2023-05-05T00:21:49.438Z,18.23
2023-05-05T00:22:49.423Z,18.13
2023-05-05T00:23:49.419Z,18.11
2023-05-05T00:24:49.420Z,18.06
2023-05-05T00:25:49.386Z,18.05
2023-05-05T00:26:49.371Z,17.94
2023-05-05T00:27:49.356Z,17.86
2023-05-05T00:28:49.372Z,17.90
2023-05-05T00:29:49.357Z,17.94
2023-05-05T00:30:49.368Z,17.90
2023-05-05T00:31:49.312Z,17.88
2023-05-05T00:32:49.347Z,17.94
2023-05-05T00:33:49.279Z,17.78
2023-05-05T00:34:49.292Z,17.88
2023-05-05T00:35:49.279Z,17.79
2023-05-05T00:36:49.248Z,17.73
2023-05-05T00:37:49.248Z,17.75
2023-05-05T00:38:49.241Z,17.78
2023-05-05T00:39:49.208Z,17.56
2023-05-05T00:40:49.199Z,17.56
2023-05-05T00:41:49.192Z,17.57
2023-05-05T00:42:49.193Z,17.47
2023-05-05T00:43:49.193Z,17.53
2023-05-05T00:44:49.149Z,17.65
2023-05-05T00:45:49.130Z,17.39
2023-05-05T00:46:49.218Z,17.32
2023-05-05T00:47:49.200Z,17.28
2023-05-05T00:48:49.100Z,17.28
2023-05-05T00:49:49.115Z,17.35
2023-05-05T00:50:49.072Z,17.27
2023-05-05T00:51:49.053Z,17.34
2023-05-05T00:52:49.044Z,17.41
2023-05-05T00:53:49.039Z,17.35
2023-05-05T00:54:49.033Z,17.38
2023-05-05T00:55:49.027Z,17.37
2023-05-05T00:56:49.017Z,17.38
2023-05-05T00:57:49.002Z,17.16
2023-05-05T00:58:48.963Z,17.14
2023-05-05T00:59:48.958Z,17.17
2023-05-05T01:00:48.973Z,17.02
2023-05-05T01:01:48.955Z,17.04
2023-05-05T01:02:48.973Z,16.97
2023-05-05T01:03:48.921Z,16.88
2023-05-05T01:04:48.893Z,16.83
2023-05-05T01:07:00.447Z,16.65
2023-05-05T01:08:01.414Z,16.61
2023-05-05T01:09:01.406Z,16.79
2023-05-05T01:10:11.431Z,16.73
2023-05-05T01:11:01.402Z,16.76
2023-05-05T01:12:01.403Z,16.74
2023-05-05T01:13:01.396Z,16.76
2023-05-05T01:14:01.332Z,16.76
2023-05-05T01:15:01.349Z,16.67
2023-05-05T01:16:01.375Z,16.64
2023-05-05T01:17:01.297Z,16.61
2023-05-05T01:18:01.310Z,16.62
2023-05-05T01:19:01.273Z,16.49
2023-05-05T01:20:01.264Z,16.47
2023-05-05T01:21:01.275Z,16.49
2023-05-05T01:22:01.229Z,16.59
2023-05-05T01:23:01.231Z,16.55
2023-05-05T01:24:01.224Z,16.49
2023-05-05T01:25:01.195Z,16.61
2023-05-05T01:26:01.195Z,16.62
2023-05-05T01:27:01.175Z,16.74
2023-05-05T01:28:01.183Z,16.70
2023-05-05T01:29:01.178Z,16.72
2023-05-05T01:30:01.116Z,16.73
2023-05-05T01:31:01.130Z,16.61
2023-05-05T01:32:01.170Z,16.67
2023-05-05T01:33:01.086Z,16.69
2023-05-05T01:34:01.234Z,16.70
2023-05-05T01:35:01.084Z,16.80
2023-05-05T01:36:01.103Z,16.84
2023-05-05T01:37:01.037Z,16.73
2023-05-05T01:38:01.012Z,16.74
2023-05-05T01:39:01.005Z,16.82
2023-05-05T01:40:01.002Z,16.83
2023-05-05T01:41:01.028Z,16.92
2023-05-05T01:42:00.964Z,16.92
2023-05-05T01:43:00.963Z,16.87
2023-05-05T01:44:00.933Z,16.82
2023-05-05T01:45:00.950Z,16.84
2023-05-05T01:46:00.929Z,16.83
2023-05-05T01:47:00.895Z,16.92
2023-05-05T01:48:00.939Z,17.01
2023-05-05T01:49:00.882Z,17.02
2023-05-05T01:50:00.897Z,17.16
2023-05-05T01:51:00.884Z,17.10
2023-05-05T01:52:00.829Z,17.07
2023-05-05T01:53:00.805Z,16.97
2023-05-05T01:54:00.811Z,16.95
2023-05-05T01:55:00.807Z,16.94
2023-05-05T01:56:00.800Z,16.87
2023-05-05T01:57:00.766Z,16.84
2023-05-05T01:58:00.742Z,16.88
2023-05-05T01:59:00.738Z,16.80
2023-05-05T02:00:00.737Z,16.91
2023-05-05T02:01:00.732Z,16.82
2023-05-05T02:02:00.803Z,16.90
2023-05-05T02:03:00.722Z,16.77
2023-05-05T02:04:00.708Z,16.65
2023-05-05T02:05:00.671Z,16.67
2023-05-05T02:06:00.634Z,16.59
2023-05-05T02:07:00.637Z,16.54
2023-05-05T02:08:00.631Z,16.44
2023-05-05T02:09:00.674Z,16.43
2023-05-05T02:10:00.593Z,16.21
2023-05-05T02:11:00.579Z,16.24
2023-05-05T02:12:00.594Z,16.33
2023-05-05T02:13:00.575Z,16.24
2023-05-05T02:14:00.606Z,16.21
2023-05-05T02:15:00.533Z,16.25
2023-05-05T02:16:00.529Z,16.17
2023-05-05T02:17:00.492Z,16.32
2023-05-05T02:18:00.515Z,16.34
2023-05-05T02:19:00.498Z,16.36
2023-05-05T02:20:00.459Z,16.43
2023-05-05T02:21:00.444Z,16.51
2023-05-05T02:22:00.445Z,16.51
2023-05-05T02:23:00.432Z,16.37
2023-05-05T02:24:00.426Z,16.44
2023-05-05T02:25:00.393Z,16.44
2023-05-05T02:26:00.378Z,16.55
2023-05-05T02:27:00.366Z,16.58
2023-05-05T02:28:00.372Z,16.64
2023-05-05T02:29:00.355Z,16.62
2023-05-05T02:30:00.327Z,16.59
2023-05-05T02:31:00.354Z,16.47
2023-05-05T02:32:00.293Z,16.40
2023-05-05T02:33:00.354Z,16.40
2023-05-05T02:34:00.268Z,16.22
2023-05-05T02:35:00.277Z,16.17
2023-05-05T02:36:00.238Z,16.14
2023-05-05T02:37:00.234Z,16.28
2023-05-05T02:38:00.239Z,16.21
2023-05-05T02:39:00.209Z,16.16
2023-05-05T02:40:00.223Z,16.25
2023-05-05T02:41:00.179Z,16.42
2023-05-05T02:42:00.157Z,16.21
2023-05-05T02:43:00.247Z,16.32
2023-05-05T02:44:00.175Z,16.29
2023-05-05T02:45:00.174Z,16.24
2023-05-05T02:46:00.149Z,16.18
2023-05-05T02:47:00.100Z,16.06
2023-05-05T02:48:00.173Z,16.05
2023-05-05T02:49:00.082Z,15.95
2023-05-05T02:50:00.069Z,16.05
2023-05-05T02:51:00.066Z,16.06
2023-05-05T02:52:00.052Z,15.99
2023-05-05T02:53:00.079Z,16.08
2023-05-05T02:53:59.999Z,16.06
2023-05-05T02:54:59.982Z,16.06
2023-05-05T02:55:59.988Z,15.88
2023-05-05T02:56:59.961Z,15.88
2023-05-05T02:57:59.951Z,15.96
2023-05-05T02:58:59.935Z,16.00
2023-05-05T02:59:59.922Z,15.98
2023-05-05T03:00:59.913Z,15.88
2023-05-05T03:01:59.929Z,15.81
2023-05-05T03:02:59.978Z,15.77
2023-05-05T03:03:59.867Z,15.70
2023-05-05T03:04:59.842Z,15.65
2023-05-05T03:05:59.839Z,15.73
2023-05-05T03:06:59.854Z,15.70
2023-05-05T03:07:59.854Z,15.84
2023-05-05T03:08:59.808Z,15.84
2023-05-05T03:09:59.783Z,15.72
2023-05-05T03:10:59.777Z,15.60
2023-05-05T03:11:59.775Z,15.59
2023-05-05T03:12:59.803Z,15.54
2023-05-05T03:13:59.732Z,15.50
2023-05-05T03:14:59.722Z,15.45
2023-05-05T03:15:59.725Z,15.45
2023-05-05T03:16:59.708Z,15.35
2023-05-05T03:17:59.737Z,15.30
2023-05-05T03:18:59.662Z,15.47
2023-05-05T03:20:01.067Z,15.48
2023-05-05T03:20:59.657Z,15.56
2023-05-05T03:21:59.639Z,15.60
2023-05-05T03:22:59.614Z,15.69
2023-05-05T03:23:59.599Z,15.63
2023-05-05T03:24:59.609Z,15.66
2023-05-05T03:25:59.567Z,15.58
2023-05-05T03:26:59.572Z,15.66
2023-05-05T03:27:59.542Z,15.63
2023-05-05T03:28:59.485Z,15.65
2023-05-05T03:29:59.484Z,15.69
2023-05-05T03:30:59.473Z,15.78
2023-05-05T03:31:59.453Z,15.69
2023-05-05T03:32:59.471Z,15.63
2023-05-05T03:33:59.439Z,15.60
2023-05-05T03:34:59.398Z,15.66
2023-05-05T03:35:59.650Z,15.70
2023-05-05T03:36:59.369Z,15.65
2023-05-05T03:37:59.360Z,15.62
2023-05-05T03:38:59.341Z,15.48
2023-05-05T03:39:59.323Z,15.65
2023-05-05T03:40:59.331Z,15.73
2023-05-05T03:41:59.313Z,15.77
2023-05-05T03:42:59.302Z,15.70
2023-05-05T03:43:59.294Z,15.72
2023-05-05T03:44:59.272Z,15.63
2023-05-05T03:45:59.303Z,15.56
2023-05-05T03:46:59.234Z,15.48
2023-05-05T03:47:59.306Z,15.45
2023-05-05T03:48:59.206Z,15.45
2023-05-05T03:49:59.213Z,15.40
2023-05-05T03:50:59.212Z,15.47
2023-05-05T03:51:59.183Z,15.50
2023-05-05T03:52:59.191Z,15.52
2023-05-05T03:53:59.155Z,15.58
2023-05-05T03:54:59.126Z,15.50
2023-05-05T03:55:59.149Z,15.59
2023-05-05T03:56:59.108Z,15.52
2023-05-05T03:57:59.092Z,15.50
2023-05-05T03:58:59.080Z,15.44
2023-05-05T03:59:59.089Z,15.43
2023-05-05T04:00:59.061Z,15.41
2023-05-05T04:01:59.050Z,15.41
2023-05-05T04:02:59.152Z,15.36
2023-05-05T04:03:59.051Z,15.33
2023-05-05T04:04:59.004Z,15.44
2023-05-05T04:05:58.989Z,15.36
2023-05-05T04:06:58.990Z,15.38
2023-05-05T04:07:59.043Z,15.47
2023-05-05T04:08:58.954Z,15.48
2023-05-05T04:09:58.954Z,15.38
2023-05-05T04:10:58.955Z,15.35
2023-05-05T04:11:58.928Z,15.51
2023-05-05T04:12:58.908Z,15.38
2023-05-05T04:13:58.881Z,15.32
2023-05-05T04:14:58.879Z,15.33
2023-05-05T04:15:58.930Z,15.38
2023-05-05T04:16:58.867Z,15.45
2023-05-05T04:17:58.884Z,15.41
2023-05-05T04:18:58.824Z,15.38
2023-05-05T04:19:58.815Z,15.40
2023-05-05T04:20:58.814Z,15.41
2023-05-05T04:21:58.775Z,15.35
2023-05-05T04:22:58.773Z,15.32
2023-05-05T04:23:58.799Z,15.27
2023-05-05T04:24:58.752Z,15.35
2023-05-05T04:25:58.778Z,15.40
2023-05-05T04:26:58.703Z,15.54
2023-05-05T04:27:58.696Z,15.40
2023-05-05T04:28:58.678Z,15.44
2023-05-05T04:29:58.684Z,15.50
2023-05-05T04:30:58.687Z,15.58
2023-05-05T04:31:58.655Z,15.45
2023-05-05T04:32:58.686Z,15.52
2023-05-05T04:33:58.664Z,15.60
2023-05-05T04:34:58.607Z,15.66
2023-05-05T04:35:58.604Z,15.66
2023-05-05T04:36:58.590Z,15.66
2023-05-05T04:37:58.568Z,15.78
2023-05-05T04:38:58.606Z,15.70
2023-05-05T04:39:58.547Z,15.77
2023-05-05T04:40:58.522Z,15.77
2023-05-05T04:41:58.533Z,15.85
2023-05-05T04:42:58.509Z,15.83
2023-05-05T04:43:58.520Z,15.88
2023-05-05T04:44:58.480Z,15.87
2023-05-05T04:45:58.514Z,15.72
2023-05-05T04:46:58.490Z,15.78
2023-05-05T04:47:58.510Z,15.83
2023-05-05T04:48:58.419Z,15.88
2023-05-05T04:49:58.412Z,15.93
2023-05-05T04:50:58.394Z,16.16
2023-05-05T04:51:58.386Z,16.40
2023-05-05T04:52:58.373Z,16.64
2023-05-05T04:53:58.355Z,16.74
2023-05-05T04:54:58.329Z,16.82
2023-05-05T04:55:58.326Z,16.97
2023-05-05T04:56:58.486Z,16.82
2023-05-05T04:57:58.323Z,16.94
2023-05-05T04:58:58.283Z,17.04
2023-05-05T04:59:58.272Z,17.10
2023-05-05T05:00:58.257Z,17.20
2023-05-05T05:01:58.290Z,17.37
2023-05-05T05:02:58.282Z,17.52
2023-05-05T05:03:58.233Z,17.62
2023-05-05T05:04:58.201Z,17.66
2023-05-05T05:05:58.207Z,17.65
2023-05-05T05:06:59.377Z,17.59
2023-05-05T05:07:58.187Z,17.34
2023-05-05T05:08:58.149Z,17.20
2023-05-05T05:09:58.147Z,17.14
2023-05-05T05:10:58.120Z,17.25
2023-05-05T05:11:58.136Z,17.37
2023-05-05T05:12:58.178Z,17.22
2023-05-05T05:13:58.095Z,17.09
2023-05-05T05:14:58.066Z,17.02
2023-05-05T05:15:58.114Z,17.02
2023-05-05T05:16:58.065Z,17.09
2023-05-05T05:17:58.098Z,16.99
2023-05-05T05:18:59.065Z,17.09
2023-05-05T05:19:58.006Z,17.07
2023-05-05T05:20:57.996Z,17.02
2023-05-05T05:21:57.992Z,16.95
2023-05-05T05:22:57.956Z,17.13
2023-05-05T05:23:57.958Z,17.27
2023-05-05T05:24:57.932Z,17.20
2023-05-05T05:25:57.933Z,17.31
2023-05-05T05:26:57.929Z,17.32
2023-05-05T05:28:08.884Z,17.41
2023-05-05T05:28:57.883Z,17.47
2023-05-05T05:29:57.871Z,17.53
2023-05-05T05:30:57.898Z,17.59
2023-05-05T05:31:57.932Z,17.54
2023-05-05T05:32:57.866Z,17.71
2023-05-05T05:33:57.817Z,17.83
2023-05-05T05:34:57.794Z,17.88
2023-05-05T05:35:57.813Z,17.75
2023-05-05T05:36:57.784Z,17.73
2023-05-05T05:37:57.763Z,17.73
2023-05-05T05:38:57.750Z,17.86
2023-05-05T05:39:57.746Z,17.83
2023-05-05T05:40:57.740Z,17.87
2023-05-05T05:41:57.718Z,17.66
2023-05-05T05:42:57.694Z,17.71
2023-05-05T05:43:57.689Z,17.45
2023-05-05T05:44:57.659Z,17.52
2023-05-05T05:45:57.788Z,17.56
2023-05-05T05:46:57.644Z,17.50
2023-05-05T05:47:57.647Z,17.54
2023-05-05T05:48:57.610Z,17.66
2023-05-05T05:49:57.600Z,17.65
2023-05-05T05:50:57.603Z,17.54
2023-05-05T05:51:57.571Z,17.38
2023-05-05T05:52:57.582Z,17.35
2023-05-05T05:53:58.857Z,17.59
2023-05-05T05:54:57.544Z,17.49
2023-05-05T05:55:57.542Z,17.38
2023-05-05T05:56:57.500Z,17.52
2023-05-05T05:57:57.501Z,17.71
2023-05-05T05:58:57.633Z,17.50
2023-05-05T05:59:58.067Z,17.34
2023-05-05T06:00:57.456Z,17.63
2023-05-05T06:01:57.508Z,17.81
2023-05-05T06:02:57.479Z,17.75
2023-05-05T06:03:57.554Z,17.53
2023-05-05T06:04:57.412Z,17.66
2023-05-05T06:05:57.398Z,17.71
2023-05-05T06:06:57.380Z,17.54
2023-05-05T06:07:57.369Z,17.45
2023-05-05T06:08:57.386Z,17.65
2023-05-05T06:09:57.333Z,17.56
2023-05-05T06:10:57.319Z,17.56
2023-05-05T06:11:57.305Z,17.50
2023-05-05T06:12:57.362Z,17.47
2023-05-05T06:13:57.328Z,17.59
2023-05-05T06:14:57.261Z,17.75
2023-05-05T06:15:57.291Z,17.75
2023-05-05T06:16:57.246Z,17.54
2023-05-05T06:17:57.308Z,17.63
2023-05-05T06:18:57.231Z,17.84
2023-05-05T06:19:57.201Z,18.06
2023-05-05T06:20:57.180Z,18.21
2023-05-05T06:21:57.173Z,18.26
2023-05-05T06:22:57.192Z,18.30
2023-05-05T06:23:57.170Z,18.20
2023-05-05T06:24:57.127Z,18.09
2023-05-05T06:25:57.137Z,18.26
2023-05-05T06:26:57.105Z,18.51
2023-05-05T06:27:57.149Z,18.45
2023-05-05T06:28:57.084Z,18.54
2023-05-05T06:29:57.066Z,18.74
2023-05-05T06:30:57.045Z,18.70
2023-05-05T06:31:57.040Z,18.61
2023-05-05T06:32:57.060Z,18.82
2023-05-05T06:33:57.029Z,18.71
2023-05-05T06:34:56.993Z,18.75
2023-05-05T06:35:56.990Z,18.89
2023-05-05T06:36:56.976Z,18.85
2023-05-05T06:37:56.979Z,18.82
2023-05-05T06:38:56.950Z,18.94
2023-05-05T06:39:56.942Z,18.93
2023-05-05T06:40:56.916Z,18.74
2023-05-05T06:41:56.906Z,18.85
2023-05-05T06:42:56.929Z,19.22
2023-05-05T06:43:56.879Z,19.37
2023-05-05T06:44:56.872Z,19.52
2023-05-05T06:45:56.859Z,19.39
2023-05-05T06:46:56.866Z,19.53
2023-05-05T06:47:56.886Z,19.39
2023-05-05T06:48:56.808Z,19.37
2023-05-05T06:49:56.803Z,19.50
2023-05-05T06:50:56.822Z,19.50
2023-05-05T06:51:56.816Z,19.50
2023-05-05T06:52:56.769Z,19.45
2023-05-05T06:53:56.752Z,19.63
2023-05-05T06:54:56.747Z,19.75
2023-05-05T06:55:56.757Z,19.92
2023-05-05T06:56:59.310Z,20.18
2023-05-05T06:57:56.712Z,20.58
2023-05-05T06:58:56.680Z,20.73
2023-05-05T06:59:56.672Z,20.60
2023-05-05T07:00:56.690Z,20.49
2023-05-05T07:01:56.664Z,20.74
2023-05-05T07:02:56.688Z,20.53
2023-05-05T07:03:56.643Z,20.77
2023-05-05T07:04:56.604Z,20.93
2023-05-05T07:05:56.601Z,20.75
2023-05-05T07:06:56.598Z,20.61
2023-05-05T07:07:56.568Z,20.68
2023-05-05T07:08:56.547Z,20.82
2023-05-05T07:09:56.535Z,21.04
2023-05-05T07:10:56.520Z,21.34
2023-05-05T07:11:56.525Z,21.25
2023-05-05T07:12:56.625Z,21.20
2023-05-05T07:13:56.502Z,20.92
2023-05-05T07:14:56.505Z,20.63
2023-05-05T07:15:56.465Z,20.88
2023-05-05T07:16:56.451Z,20.88
2023-05-05T07:17:56.559Z,20.50
2023-05-05T07:18:56.411Z,20.95
2023-05-05T07:19:56.424Z,20.93
2023-05-05T07:20:56.407Z,21.01
2023-05-05T07:21:56.477Z,21.14
2023-05-05T07:22:56.365Z,20.56
2023-05-05T07:23:56.350Z,20.64
2023-05-05T07:24:56.335Z,20.85
2023-05-05T07:25:56.339Z,20.65
2023-05-05T07:26:56.315Z,20.77
2023-05-05T07:27:56.300Z,21.11
2023-05-05T07:28:56.321Z,20.93
2023-05-05T07:29:56.295Z,21.40
2023-05-05T07:30:56.281Z,21.37
2023-05-05T07:31:56.284Z,21.20
2023-05-05T07:32:56.250Z,21.13
2023-05-05T07:33:56.230Z,21.34
2023-05-05T07:34:56.222Z,21.59
2023-05-05T07:35:56.206Z,21.50
2023-05-05T07:36:56.356Z,21.40
2023-05-05T07:37:56.164Z,21.71
2023-05-05T07:38:56.149Z,21.38
2023-05-05T07:39:56.165Z,21.55
2023-05-05T07:40:56.121Z,22.03
2023-05-05T07:41:56.108Z,22.30
2023-05-05T07:42:56.100Z,21.71
2023-05-05T07:43:56.106Z,21.45
2023-05-05T07:44:56.080Z,22.04
2023-05-05T07:45:56.087Z,22.36
2023-05-05T07:46:56.043Z,22.11
2023-05-05T07:47:56.056Z,21.85
2023-05-05T07:48:56.031Z,21.55
2023-05-05T07:49:55.997Z,21.58
2023-05-05T07:50:56.015Z,21.55
2023-05-05T07:51:55.977Z,21.44
2023-05-05T07:53:05.778Z,21.53
2023-05-05T07:53:56.036Z,21.47
2023-05-05T07:54:55.937Z,21.51
2023-05-05T07:55:55.916Z,21.59
2023-05-05T07:56:55.933Z,21.71
2023-05-05T07:57:55.888Z,21.82
2023-05-05T07:58:55.910Z,21.85
2023-05-05T07:59:55.875Z,21.78
2023-05-05T08:00:55.855Z,21.82
2023-05-05T08:01:55.872Z,21.78
2023-05-05T08:02:55.900Z,21.59
2023-05-05T08:03:55.967Z,21.80
2023-05-05T08:04:55.803Z,22.13
2023-05-05T08:05:55.803Z,21.84
2023-05-05T08:06:55.800Z,21.88
2023-05-05T08:07:55.804Z,21.97
2023-05-05T08:08:55.757Z,22.01
2023-05-05T08:09:55.738Z,22.19
2023-05-05T08:10:55.724Z,22.01
2023-05-05T08:11:55.724Z,22.04
2023-05-05T08:12:55.756Z,21.59
2023-05-05T08:13:55.686Z,21.59
2023-05-05T08:14:55.685Z,21.44
2023-05-05T08:15:55.704Z,21.22
2023-05-05T08:16:55.643Z,21.47
2023-05-05T08:17:55.780Z,21.73
2023-05-05T08:18:55.631Z,22.09
2023-05-05T08:19:55.602Z,22.30
2023-05-05T08:20:55.597Z,22.22
2023-05-05T08:21:55.581Z,22.59
2023-05-05T08:22:55.600Z,22.81
2023-05-05T08:23:55.547Z,22.78
2023-05-05T08:24:55.560Z,22.44
2023-05-05T08:25:55.543Z,22.80
2023-05-05T08:26:55.561Z,22.88
2023-05-05T08:27:55.504Z,22.96
2023-05-05T08:28:55.508Z,22.71
2023-05-05T08:29:55.499Z,22.41
2023-05-05T08:30:55.493Z,22.61
2023-05-05T08:31:55.553Z,23.03
2023-05-05T08:32:55.559Z,23.21
2023-05-05T08:33:55.446Z,23.41
2023-05-05T08:34:55.428Z,23.59
2023-05-05T08:35:55.391Z,23.17
2023-05-05T08:36:55.383Z,23.52
2023-05-05T08:37:58.160Z,23.59
2023-05-05T08:38:55.379Z,22.95
2023-05-05T08:39:55.337Z,22.44
2023-05-05T08:40:55.352Z,22.22
2023-05-05T08:41:55.325Z,22.23
2023-05-05T08:42:55.321Z,22.21
2023-05-05T08:43:55.297Z,22.61
2023-05-05T08:44:56.392Z,23.17
2023-05-05T08:45:55.263Z,23.33
2023-05-05T08:46:55.300Z,22.80
2023-05-05T08:47:55.244Z,22.52
2023-05-05T08:48:55.232Z,22.31
2023-05-05T08:49:55.211Z,22.36
2023-05-05T08:50:56.713Z,22.55
2023-05-05T08:51:55.178Z,22.88
2023-05-05T08:52:55.244Z,23.15
2023-05-05T08:53:55.153Z,23.44
2023-05-05T08:54:55.159Z,23.71
2023-05-05T08:55:55.142Z,23.67
2023-05-05T08:56:55.113Z,23.78
2023-05-05T08:57:55.109Z,24.00
2023-05-05T08:58:55.103Z,23.76
2023-05-05T08:59:55.077Z,23.85
2023-05-05T09:00:55.116Z,23.28
2023-05-05T09:01:55.104Z,23.67
2023-05-05T09:02:55.081Z,24.26
2023-05-05T09:03:55.028Z,24.26
2023-05-05T09:04:55.014Z,24.19
2023-05-05T09:05:54.992Z,23.60
2023-05-05T09:06:55.004Z,23.45
2023-05-05T09:07:54.971Z,23.82
2023-05-05T09:08:55.654Z,23.84
2023-05-05T09:09:54.938Z,23.78
2023-05-05T09:10:54.969Z,23.41
2023-05-05T09:11:54.934Z,23.21
2023-05-05T09:12:54.946Z,23.29
2023-05-05T09:13:54.894Z,23.11
2023-05-05T09:14:55.355Z,23.34
2023-05-05T09:15:54.877Z,23.48
2023-05-05T09:16:54.911Z,23.60
2023-05-05T09:17:54.885Z,23.67
2023-05-05T09:18:54.836Z,23.42
2023-05-05T09:19:54.804Z,23.44
2023-05-05T09:20:55.140Z,23.44
2023-05-05T09:21:54.778Z,23.22
2023-05-05T09:22:54.762Z,23.63
2023-05-05T09:23:55.108Z,23.59
2023-05-05T09:24:54.781Z,23.64
2023-05-05T09:25:54.726Z,23.48
2023-05-05T09:26:54.727Z,23.69
2023-05-05T09:27:54.704Z,23.39
2023-05-05T09:28:54.722Z,23.37
2023-05-05T09:29:54.687Z,23.45
2023-05-05T09:30:54.684Z,23.04
2023-05-05T09:31:54.658Z,22.85
2023-05-05T09:32:54.739Z,22.77
2023-05-05T09:33:54.642Z,22.89
2023-05-05T09:34:54.658Z,23.06
2023-05-05T09:35:54.593Z,23.34
2023-05-05T09:36:54.594Z,23.41
2023-05-05T09:37:54.595Z,23.85
2023-05-05T09:38:54.584Z,24.33
2023-05-05T09:39:54.588Z,24.31
2023-05-05T09:40:54.535Z,24.10
2023-05-05T09:41:54.527Z,24.03
2023-05-05T09:42:54.532Z,23.44
2023-05-05T09:43:54.500Z,23.66
2023-05-05T09:44:54.483Z,23.71
2023-05-05T09:45:54.493Z,24.06
2023-05-05T09:46:54.458Z,24.62
2023-05-05T09:47:59.138Z,24.37
2023-05-05T09:48:54.430Z,24.37
2023-05-05T09:49:54.415Z,24.10
2023-05-05T09:50:54.422Z,23.45
2023-05-05T09:51:54.410Z,23.28
2023-05-05T09:52:54.400Z,23.84
2023-05-05T09:53:54.378Z,24.44
2023-05-05T09:54:54.443Z,24.41
2023-05-05T09:55:54.364Z,23.73
2023-05-05T09:56:54.353Z,23.37
2023-05-05T09:57:54.319Z,23.39
2023-05-05T09:58:54.295Z,23.51
2023-05-05T09:59:54.316Z,23.70
2023-05-05T10:00:54.276Z,23.39
2023-05-05T10:01:54.368Z,23.48
2023-05-05T10:02:54.286Z,23.60
2023-05-05T10:03:54.267Z,24.07
2023-05-05T10:04:54.244Z,24.47
2023-05-05T10:05:54.248Z,24.51
2023-05-05T10:06:54.186Z,24.60
2023-05-05T10:07:54.210Z,24.78
2023-05-05T10:08:54.167Z,24.29
2023-05-05T10:09:54.148Z,24.16
2023-05-05T10:10:54.149Z,23.97
2023-05-05T10:11:54.137Z,23.97
2023-05-05T10:12:54.143Z,24.31
2023-05-05T10:13:54.096Z,24.59
2023-05-05T10:14:54.084Z,24.10
2023-05-05T10:15:54.177Z,23.82
2023-05-05T10:16:54.062Z,24.13
2023-05-05T10:18:05.134Z,24.41
2023-05-05T10:18:54.036Z,24.25
2023-05-05T10:19:54.062Z,23.98
2023-05-05T10:20:54.032Z,24.33
2023-05-05T10:21:53.996Z,24.56
2023-05-05T10:22:53.987Z,24.19
2023-05-05T10:23:53.964Z,24.26
2023-05-05T10:24:53.982Z,24.48
2023-05-05T10:25:53.948Z,24.28
2023-05-05T10:26:53.959Z,24.48
2023-05-05T10:27:53.906Z,24.66
2023-05-05T10:28:53.897Z,24.58
2023-05-05T10:29:53.884Z,24.62
2023-05-05T10:30:53.897Z,24.66
2023-05-05T10:31:53.920Z,24.81
2023-05-05T10:33:07.922Z,24.79
2023-05-05T10:33:53.888Z,25.01
2023-05-05T10:34:53.874Z,24.34
2023-05-05T10:35:53.829Z,24.53
2023-05-05T10:36:53.802Z,24.66
2023-05-05T10:37:53.784Z,24.74
2023-05-05T10:38:53.778Z,24.68
2023-05-05T10:39:53.755Z,24.75
2023-05-05T10:40:53.761Z,24.47
2023-05-05T10:41:53.737Z,24.40
2023-05-05T10:42:53.728Z,24.25
2023-05-05T10:43:53.713Z,24.33
2023-05-05T10:44:53.749Z,24.44
2023-05-05T10:45:53.772Z,24.74
2023-05-05T10:46:53.672Z,24.55
2023-05-05T10:47:53.748Z,24.21
2023-05-05T10:48:53.704Z,24.36
2023-05-05T10:49:53.671Z,23.81
2023-05-05T10:50:53.626Z,24.00
2023-05-05T10:51:53.594Z,23.70
2023-05-05T10:52:53.601Z,23.46
2023-05-05T10:53:53.656Z,23.64
2023-05-05T10:54:53.574Z,24.15
2023-05-05T10:55:53.559Z,24.68
2023-05-05T10:56:53.774Z,24.84
2023-05-05T10:57:53.555Z,25.08
2023-05-05T10:59:00.082Z,25.55
2023-05-05T10:59:53.518Z,25.52
2023-05-05T11:00:53.510Z,25.75
2023-05-05T11:01:53.467Z,25.78
2023-05-05T11:02:53.498Z,25.64
2023-05-05T11:03:53.506Z,25.73
2023-05-05T11:04:53.464Z,25.93
2023-05-05T11:05:53.418Z,25.11
2023-05-05T11:06:53.410Z,24.82
2023-05-05T11:07:53.405Z,24.74
2023-05-05T11:08:53.420Z,24.82
2023-05-05T11:09:53.373Z,25.26
2023-05-05T11:10:53.364Z,25.73
2023-05-05T11:11:53.342Z,25.75
2023-05-05T11:12:53.377Z,25.30
2023-05-05T11:13:53.339Z,25.21
2023-05-05T11:14:53.303Z,24.89
2023-05-05T11:15:53.286Z,24.37
2023-05-05T11:16:53.303Z,24.36
2023-05-05T11:17:53.308Z,24.58
2023-05-05T11:18:53.273Z,24.41
2023-05-05T11:19:53.238Z,23.88
2023-05-05T11:20:53.223Z,24.11
2023-05-05T11:21:53.201Z,24.60
2023-05-05T11:22:53.235Z,24.65
2023-05-05T11:23:53.179Z,24.75
2023-05-05T11:24:53.165Z,24.93
2023-05-05T11:25:53.157Z,24.89
2023-05-05T11:26:53.165Z,24.21
2023-05-05T11:27:53.142Z,24.07
2023-05-05T11:28:53.144Z,23.94
2023-05-05T11:29:53.127Z,24.44
2023-05-05T11:30:53.136Z,24.45
2023-05-05T11:31:53.077Z,24.15
2023-05-05T11:32:53.213Z,24.13
2023-05-05T11:33:53.063Z,24.11
2023-05-05T11:34:53.066Z,24.31
2023-05-05T11:35:53.021Z,24.29
2023-05-05T11:36:53.067Z,24.34
2023-05-05T11:37:53.021Z,24.26
2023-05-05T11:38:52.992Z,24.25
2023-05-05T11:39:52.976Z,24.51
2023-05-05T11:40:52.963Z,24.58
2023-05-05T11:41:52.964Z,24.31
2023-05-05T11:42:52.940Z,24.41
2023-05-05T11:43:52.917Z,24.90
2023-05-05T11:44:52.925Z,24.99
2023-05-05T11:45:52.915Z,25.26
2023-05-05T11:46:52.910Z,25.64
2023-05-05T11:47:53.000Z,25.71
2023-05-05T11:48:52.851Z,25.73
2023-05-05T11:49:52.843Z,25.63
2023-05-05T11:50:52.848Z,25.09
2023-05-05T11:51:52.845Z,25.12
2023-05-05T11:52:59.310Z,25.21
2023-05-05T11:53:52.789Z,24.85
2023-05-05T11:54:52.787Z,24.91
2023-05-05T11:55:52.780Z,24.94
2023-05-05T11:56:52.759Z,25.30
2023-05-05T11:57:52.746Z,25.33
2023-05-05T11:58:52.731Z,24.56
2023-05-05T11:59:52.721Z,24.33
2023-05-05T12:00:52.721Z,24.58
2023-05-05T12:01:52.680Z,24.51
2023-05-05T12:02:52.703Z,24.58
2023-05-05T12:03:52.783Z,24.86
2023-05-05T12:04:52.733Z,25.22
2023-05-05T12:05:52.664Z,25.37
2023-05-05T12:06:52.632Z,25.22
2023-05-05T12:07:52.613Z,25.19
2023-05-05T12:08:52.604Z,24.79
2023-05-05T12:09:52.603Z,24.52
2023-05-05T12:10:52.564Z,24.81
2023-05-05T12:11:52.574Z,24.71
2023-05-05T12:12:55.188Z,24.51
2023-05-05T12:13:52.529Z,24.52
2023-05-05T12:14:52.546Z,24.21
2023-05-05T12:15:52.529Z,23.76
2023-05-05T12:16:52.491Z,24.15
2023-05-05T12:17:52.585Z,24.06
2023-05-05T12:18:52.489Z,24.00
2023-05-05T12:19:52.481Z,24.04
2023-05-05T12:20:52.437Z,24.22
2023-05-05T12:21:52.434Z,24.06
2023-05-05T12:22:52.407Z,23.73
2023-05-05T12:23:52.421Z,23.55
2023-05-05T12:24:54.417Z,23.67
2023-05-05T12:25:52.379Z,23.98
2023-05-05T12:26:52.360Z,23.97
2023-05-05T12:27:52.348Z,24.08
2023-05-05T12:28:52.389Z,24.22
2023-05-05T12:29:52.321Z,24.29
2023-05-05T12:30:53.275Z,24.16
2023-05-05T12:31:52.304Z,24.15
2023-05-05T12:32:52.306Z,24.40
2023-05-05T12:33:52.300Z,24.51
2023-05-05T12:34:52.251Z,23.86
2023-05-05T12:35:52.252Z,23.91
2023-05-05T12:36:52.230Z,23.71
2023-05-05T12:37:52.224Z,23.73
2023-05-05T12:38:52.358Z,23.41
2023-05-05T12:39:52.191Z,23.42
2023-05-05T12:40:52.179Z,23.42
2023-05-05T12:41:52.166Z,23.34
2023-05-05T12:42:52.167Z,23.60
2023-05-05T12:43:52.144Z,23.45
2023-05-05T12:44:52.128Z,23.36
2023-05-05T12:45:52.138Z,23.64
2023-05-05T12:46:52.123Z,23.52
2023-05-05T12:47:52.141Z,23.31
2023-05-05T12:48:52.066Z,23.41
2023-05-05T12:49:52.064Z,23.49
2023-05-05T12:50:52.041Z,23.89
2023-05-05T12:51:52.064Z,23.98
2023-05-05T12:52:52.075Z,23.78
2023-05-05T12:53:52.007Z,23.94